sensor_id;sensor_type;location;lat;lon;timestamp;pressure;altitude;pressure_sealevel;temperature
6550;BMP280;15142;48.888;9.134;2023-05-27T00:01:25;98803.19;;;15.56
6550;BMP280;15142;48.888;9.134;2023-05-27T00:03:54;98797.84;;;15.53
6550;BMP280;15142;48.888;9.134;2023-05-27T00:06:22;98803.66;;;15.45
6550;BMP280;15142;48.888;9.134;2023-05-27T00:08:51;98795.56;;;15.38
6550;BMP280;15142;48.888;9.134;2023-05-27T00:11:19;98807.75;;;15.33
6550;BMP280;15142;48.888;9.134;2023-05-27T00:13:51;98805.25;;;15.28
6550;BMP280;15142;48.888;9.134;2023-05-27T00:16:20;98806.13;;;15.23
6550;BMP280;15142;48.888;9.134;2023-05-27T00:18:48;98808.47;;;15.20
6550;BMP280;15142;48.888;9.134;2023-05-27T00:21:18;98802.59;;;15.19
6550;BMP280;15142;48.888;9.134;2023-05-27T00:23:47;98807.94;;;15.23
6550;BMP280;15142;48.888;9.134;2023-05-27T00:26:16;98807.81;;;15.28
6550;BMP280;15142;48.888;9.134;2023-05-27T00:28:51;98816.09;;;15.25
6550;BMP280;15142;48.888;9.134;2023-05-27T00:31:20;98813.59;;;15.20
6550;BMP280;15142;48.888;9.134;2023-05-27T00:33:49;98812.13;;;15.19
6550;BMP280;15142;48.888;9.134;2023-05-27T00:36:18;98806.69;;;15.20
6550;BMP280;15142;48.888;9.134;2023-05-27T00:38:47;98802.28;;;15.21
6550;BMP280;15142;48.888;9.134;2023-05-27T00:41:15;98797.91;;;15.21
6550;BMP280;15142;48.888;9.134;2023-05-27T00:43:44;98803.41;;;15.15
6550;BMP280;15142;48.888;9.134;2023-05-27T00:46:15;98802.72;;;15.10
6550;BMP280;15142;48.888;9.134;2023-05-27T00:48:45;98797.91;;;15.08
6550;BMP280;15142;48.888;9.134;2023-05-27T00:51:14;98804.66;;;15.04
6550;BMP280;15142;48.888;9.134;2023-05-27T00:53:43;98799.13;;;14.97
6550;BMP280;15142;48.888;9.134;2023-05-27T00:56:12;98797.88;;;14.95
6550;BMP280;15142;48.888;9.134;2023-05-27T00:58:42;98788.94;;;14.92
6550;BMP280;15142;48.888;9.134;2023-05-27T01:01:11;98800.00;;;14.88
6550;BMP280;15142;48.888;9.134;2023-05-27T01:03:42;98795.28;;;14.82
6550;BMP280;15142;48.888;9.134;2023-05-27T01:06:18;98785.34;;;14.75
6550;BMP280;15142;48.888;9.134;2023-05-27T01:08:58;98784.94;;;14.68
6550;BMP280;15142;48.888;9.134;2023-05-27T01:11:31;98785.78;;;14.64
6550;BMP280;15142;48.888;9.134;2023-05-27T01:14:07;98781.94;;;14.61
6550;BMP280;15142;48.888;9.134;2023-05-27T01:16:39;98780.22;;;14.57
6550;BMP280;15142;48.888;9.134;2023-05-27T01:19:13;98777.47;;;14.54
6550;BMP280;15142;48.888;9.134;2023-05-27T01:21:47;98770.31;;;14.51
6550;BMP280;15142;48.888;9.134;2023-05-27T01:24:19;98778.84;;;14.46
6550;BMP280;15142;48.888;9.134;2023-05-27T01:26:47;98777.38;;;14.40
6550;BMP280;15142;48.888;9.134;2023-05-27T01:29:16;98776.44;;;14.36
6550;BMP280;15142;48.888;9.134;2023-05-27T01:34:20;98771.38;;;14.31
6550;BMP280;15142;48.888;9.134;2023-05-27T01:36:54;98770.88;;;14.30
6550;BMP280;15142;48.888;9.134;2023-05-27T01:39:27;98768.13;;;14.26
6550;BMP280;15142;48.888;9.134;2023-05-27T01:41:57;98759.41;;;14.22
6550;BMP280;15142;48.888;9.134;2023-05-27T01:44:29;98758.91;;;14.20
6550;BMP280;15142;48.888;9.134;2023-05-27T01:46:59;98764.38;;;14.19
6550;BMP280;15142;48.888;9.134;2023-05-27T01:49:29;98759.78;;;14.16
6550;BMP280;15142;48.888;9.134;2023-05-27T01:51:58;98761.38;;;14.12
6550;BMP280;15142;48.888;9.134;2023-05-27T01:54:30;98769.34;;;14.10
6550;BMP280;15142;48.888;9.134;2023-05-27T01:56:59;98767.63;;;14.06
6550;BMP280;15142;48.888;9.134;2023-05-27T01:59:28;98760.47;;;14.03
6550;BMP280;15142;48.888;9.134;2023-05-27T02:01:56;98765.38;;;14.00
6550;BMP280;15142;48.888;9.134;2023-05-27T02:04:25;98756.78;;;13.91
6550;BMP280;15142;48.888;9.134;2023-05-27T02:06:54;98752.19;;;13.88
6550;BMP280;15142;48.888;9.134;2023-05-27T02:09:24;98749.25;;;13.76
6550;BMP280;15142;48.888;9.134;2023-05-27T02:11:56;98748.50;;;13.75
6550;BMP280;15142;48.888;9.134;2023-05-27T02:14:25;98745.69;;;13.77
6550;BMP280;15142;48.888;9.134;2023-05-27T02:16:54;98745.22;;;13.70
6550;BMP280;15142;48.888;9.134;2023-05-27T02:19:23;98742.25;;;13.63
6550;BMP280;15142;48.888;9.134;2023-05-27T02:21:52;98745.75;;;13.49
6550;BMP280;15142;48.888;9.134;2023-05-27T02:24:20;98744.81;;;13.40
6550;BMP280;15142;48.888;9.134;2023-05-27T02:26:49;98748.03;;;13.27
6550;BMP280;15142;48.888;9.134;2023-05-27T02:29:20;98740.63;;;13.21
6550;BMP280;15142;48.888;9.134;2023-05-27T02:31:50;98748.41;;;13.16
6550;BMP280;15142;48.888;9.134;2023-05-27T02:34:19;98742.03;;;13.09
6550;BMP280;15142;48.888;9.134;2023-05-27T02:36:49;98752.28;;;13.09
6550;BMP280;15142;48.888;9.134;2023-05-27T02:39:18;98748.50;;;13.06
6550;BMP280;15142;48.888;9.134;2023-05-27T02:41:47;98746.19;;;13.05
6550;BMP280;15142;48.888;9.134;2023-05-27T02:44:15;98748.50;;;13.06
6550;BMP280;15142;48.888;9.134;2023-05-27T02:46:46;98740.06;;;13.01
6550;BMP280;15142;48.888;9.134;2023-05-27T02:49:15;98739.88;;;12.97
6550;BMP280;15142;48.888;9.134;2023-05-27T02:51:44;98742.69;;;12.96
6550;BMP280;15142;48.888;9.134;2023-05-27T02:54:12;98744.03;;;12.93
6550;BMP280;15142;48.888;9.134;2023-05-27T02:56:41;98741.75;;;12.87
6550;BMP280;15142;48.888;9.134;2023-05-27T02:59:10;98747.16;;;12.86
6550;BMP280;15142;48.888;9.134;2023-05-27T03:01:38;98744.94;;;12.74
6550;BMP280;15142;48.888;9.134;2023-05-27T03:04:11;98743.94;;;12.65
6550;BMP280;15142;48.888;9.134;2023-05-27T03:06:42;98742.97;;;12.61
6550;BMP280;15142;48.888;9.134;2023-05-27T03:09:11;98734.03;;;12.59
6550;BMP280;15142;48.888;9.134;2023-05-27T03:11:40;98747.13;;;12.53
6550;BMP280;15142;48.888;9.134;2023-05-27T03:14:11;98736.69;;;12.44
6550;BMP280;15142;48.888;9.134;2023-05-27T03:16:39;98736.47;;;12.41
6550;BMP280;15142;48.888;9.134;2023-05-27T03:19:08;98741.06;;;12.39
6550;BMP280;15142;48.888;9.134;2023-05-27T03:21:39;98748.25;;;12.42
6550;BMP280;15142;48.888;9.134;2023-05-27T03:24:07;98759.47;;;12.46
6550;BMP280;15142;48.888;9.134;2023-05-27T03:26:37;98757.44;;;12.48
6550;BMP280;15142;48.888;9.134;2023-05-27T03:29:06;98759.19;;;12.47
6550;BMP280;15142;48.888;9.134;2023-05-27T03:31:34;98759.47;;;12.46
6550;BMP280;15142;48.888;9.134;2023-05-27T03:34:07;98753.84;;;12.44
6550;BMP280;15142;48.888;9.134;2023-05-27T03:36:42;98748.53;;;12.35
6550;BMP280;15142;48.888;9.134;2023-05-27T03:39:13;98751.38;;;12.29
6550;BMP280;15142;48.888;9.134;2023-05-27T03:41:48;98747.81;;;12.30
6550;BMP280;15142;48.888;9.134;2023-05-27T03:44:17;98761.31;;;12.35
6550;BMP280;15142;48.888;9.134;2023-05-27T03:46:46;98756.00;;;12.27
6550;BMP280;15142;48.888;9.134;2023-05-27T03:49:15;98752.00;;;12.16
6550;BMP280;15142;48.888;9.134;2023-05-27T03:51:46;98752.50;;;12.13
6550;BMP280;15142;48.888;9.134;2023-05-27T03:54:15;98753.47;;;12.17
6550;BMP280;15142;48.888;9.134;2023-05-27T03:56:46;98754.28;;;12.18
6550;BMP280;15142;48.888;9.134;2023-05-27T03:59:16;98755.53;;;12.20
6550;BMP280;15142;48.888;9.134;2023-05-27T04:01:45;98747.81;;;12.25
6550;BMP280;15142;48.888;9.134;2023-05-27T04:04:14;98755.50;;;12.30
6550;BMP280;15142;48.888;9.134;2023-05-27T04:06:46;98737.13;;;12.13
6550;BMP280;15142;48.888;9.134;2023-05-27T04:09:15;98751.97;;;12.11
6550;BMP280;15142;48.888;9.134;2023-05-27T04:11:44;98745.63;;;12.09
6550;BMP280;15142;48.888;9.134;2023-05-27T04:14:13;98751.50;;;12.09
6550;BMP280;15142;48.888;9.134;2023-05-27T04:16:41;98758.91;;;12.11
6550;BMP280;15142;48.888;9.134;2023-05-27T04:19:10;98760.44;;;12.12
6550;BMP280;15142;48.888;9.134;2023-05-27T04:21:40;98754.28;;;12.18
6550;BMP280;15142;48.888;9.134;2023-05-27T04:24:11;98763.72;;;12.22
6550;BMP280;15142;48.888;9.134;2023-05-27T04:26:40;98763.69;;;12.27
6550;BMP280;15142;48.888;9.134;2023-05-27T04:29:08;98759.66;;;12.16
6550;BMP280;15142;48.888;9.134;2023-05-27T04:31:38;98760.16;;;12.13
6550;BMP280;15142;48.888;9.134;2023-05-27T04:34:13;98760.66;;;12.20
6550;BMP280;15142;48.888;9.134;2023-05-27T04:36:42;98755.50;;;12.25
6550;BMP280;15142;48.888;9.134;2023-05-27T04:39:19;98765.22;;;12.28
6550;BMP280;15142;48.888;9.134;2023-05-27T04:41:49;98761.66;;;12.19
6550;BMP280;15142;48.888;9.134;2023-05-27T04:44:28;98764.75;;;12.21
6550;BMP280;15142;48.888;9.134;2023-05-27T04:46:58;98755.00;;;12.28
6550;BMP280;15142;48.888;9.134;2023-05-27T04:49:27;98761.63;;;12.29
6550;BMP280;15142;48.888;9.134;2023-05-27T04:51:55;98762.63;;;12.33
6550;BMP280;15142;48.888;9.134;2023-05-27T04:54:29;98762.06;;;12.41
6550;BMP280;15142;48.888;9.134;2023-05-27T04:56:59;98754.88;;;12.48
6550;BMP280;15142;48.888;9.134;2023-05-27T04:59:30;98755.88;;;12.47
6550;BMP280;15142;48.888;9.134;2023-05-27T05:02:13;98762.28;;;12.49
6550;BMP280;15142;48.888;9.134;2023-05-27T05:05:00;98749.19;;;12.56
6550;BMP280;15142;48.888;9.134;2023-05-27T05:07:29;98758.88;;;12.58
6550;BMP280;15142;48.888;9.134;2023-05-27T05:10:01;98749.63;;;12.62
6550;BMP280;15142;48.888;9.134;2023-05-27T05:12:35;98754.69;;;12.67
6550;BMP280;15142;48.888;9.134;2023-05-27T05:15:06;98748.56;;;12.63
6550;BMP280;15142;48.888;9.134;2023-05-27T05:17:39;98757.00;;;12.74
6550;BMP280;15142;48.888;9.134;2023-05-27T05:20:13;98768.91;;;12.83
6550;BMP280;15142;48.888;9.134;2023-05-27T05:22:41;98763.28;;;12.86
6550;BMP280;15142;48.888;9.134;2023-05-27T05:25:13;98765.53;;;12.92
6550;BMP280;15142;48.888;9.134;2023-05-27T05:27:48;98763.69;;;12.98
6550;BMP280;15142;48.888;9.134;2023-05-27T05:30:16;98765.50;;;12.97
6550;BMP280;15142;48.888;9.134;2023-05-27T05:32:45;98764.72;;;12.97
6550;BMP280;15142;48.888;9.134;2023-05-27T05:35:15;98772.03;;;13.08
6550;BMP280;15142;48.888;9.134;2023-05-27T05:37:50;98776.38;;;13.13
6550;BMP280;15142;48.888;9.134;2023-05-27T05:40:22;98774.34;;;13.10
6550;BMP280;15142;48.888;9.134;2023-05-27T05:43:09;98774.69;;;13.26
6550;BMP280;15142;48.888;9.134;2023-05-27T05:45:38;98770.25;;;13.37
6550;BMP280;15142;48.888;9.134;2023-05-27T05:48:08;98779.13;;;13.44
6550;BMP280;15142;48.888;9.134;2023-05-27T05:50:40;98772.31;;;13.58
6550;BMP280;15142;48.888;9.134;2023-05-27T05:53:09;98775.03;;;13.66
6550;BMP280;15142;48.888;9.134;2023-05-27T05:55:40;98773.41;;;13.75
6550;BMP280;15142;48.888;9.134;2023-05-27T05:58:10;98769.19;;;13.84
6550;BMP280;15142;48.888;9.134;2023-05-27T06:00:39;98767.59;;;13.88
6550;BMP280;15142;48.888;9.134;2023-05-27T06:03:34;98771.41;;;13.90
6550;BMP280;15142;48.888;9.134;2023-05-27T06:06:05;98772.84;;;14.01
6550;BMP280;15142;48.888;9.134;2023-05-27T06:08:46;98769.44;;;13.82
6550;BMP280;15142;48.888;9.134;2023-05-27T06:11:19;98772.38;;;13.94
6550;BMP280;15142;48.888;9.134;2023-05-27T06:13:47;98768.56;;;13.92
6550;BMP280;15142;48.888;9.134;2023-05-27T06:16:18;98765.03;;;14.06
6550;BMP280;15142;48.888;9.134;2023-05-27T06:18:48;98764.78;;;14.26
6550;BMP280;15142;48.888;9.134;2023-05-27T06:21:20;98769.88;;;14.44
6550;BMP280;15142;48.888;9.134;2023-05-27T06:24:07;98770.22;;;14.56
6550;BMP280;15142;48.888;9.134;2023-05-27T06:26:43;98769.34;;;14.65
6550;BMP280;15142;48.888;9.134;2023-05-27T06:29:12;98768.09;;;14.62
6550;BMP280;15142;48.888;9.134;2023-05-27T06:31:41;98756.94;;;14.67
6550;BMP280;15142;48.888;9.134;2023-05-27T06:34:12;98761.03;;;14.68
6550;BMP280;15142;48.888;9.134;2023-05-27T06:36:40;98752.88;;;14.79
6550;BMP280;15142;48.888;9.134;2023-05-27T06:39:09;98760.59;;;14.79
6550;BMP280;15142;48.888;9.134;2023-05-27T06:41:39;98758.53;;;14.94
6550;BMP280;15142;48.888;9.134;2023-05-27T06:44:33;98760.84;;;15.09
6550;BMP280;15142;48.888;9.134;2023-05-27T06:47:10;98764.28;;;15.18
6550;BMP280;15142;48.888;9.134;2023-05-27T06:49:40;98758.00;;;15.24
6550;BMP280;15142;48.888;9.134;2023-05-27T06:52:09;98758.47;;;15.26
6550;BMP280;15142;48.888;9.134;2023-05-27T06:54:54;98754.66;;;15.37
6550;BMP280;15142;48.888;9.134;2023-05-27T06:57:43;98756.66;;;15.53
6550;BMP280;15142;48.888;9.134;2023-05-27T07:00:21;98769.03;;;15.38
6550;BMP280;15142;48.888;9.134;2023-05-27T07:03:09;98760.09;;;15.48
6550;BMP280;15142;48.888;9.134;2023-05-27T07:05:37;98758.34;;;15.57
6550;BMP280;15142;48.888;9.134;2023-05-27T07:08:06;98765.97;;;15.75
6550;BMP280;15142;48.888;9.134;2023-05-27T07:10:35;98761.75;;;15.79
6550;BMP280;15142;48.888;9.134;2023-05-27T07:13:03;98765.28;;;15.83
6550;BMP280;15142;48.888;9.134;2023-05-27T07:15:46;98770.00;;;16.16
6550;BMP280;15142;48.888;9.134;2023-05-27T07:18:16;98763.03;;;16.17
6550;BMP280;15142;48.888;9.134;2023-05-27T07:20:46;98766.81;;;16.41
6550;BMP280;15142;48.888;9.134;2023-05-27T07:23:16;98760.16;;;16.61
6550;BMP280;15142;48.888;9.134;2023-05-27T07:25:52;98763.88;;;16.77
6550;BMP280;15142;48.888;9.134;2023-05-27T07:28:22;98758.28;;;16.83
6550;BMP280;15142;48.888;9.134;2023-05-27T07:31:01;98759.38;;;16.91
6550;BMP280;15142;48.888;9.134;2023-05-27T07:33:35;98754.28;;;17.08
6550;BMP280;15142;48.888;9.134;2023-05-27T07:36:04;98751.97;;;16.98
6550;BMP280;15142;48.888;9.134;2023-05-27T07:38:32;98750.66;;;17.09
6550;BMP280;15142;48.888;9.134;2023-05-27T07:41:01;98757.13;;;17.36
6550;BMP280;15142;48.888;9.134;2023-05-27T07:43:29;98746.66;;;17.58
6550;BMP280;15142;48.888;9.134;2023-05-27T07:46:01;98755.22;;;17.75
6550;BMP280;15142;48.888;9.134;2023-05-27T07:48:31;98750.97;;;17.95
6550;BMP280;15142;48.888;9.134;2023-05-27T07:50:59;98749.91;;;18.05
6550;BMP280;15142;48.888;9.134;2023-05-27T07:53:28;98751.13;;;18.07
6550;BMP280;15142;48.888;9.134;2023-05-27T07:55:56;98744.69;;;18.21
6550;BMP280;15142;48.888;9.134;2023-05-27T07:58:25;98746.84;;;18.20
6550;BMP280;15142;48.888;9.134;2023-05-27T08:01:14;98741.38;;;18.13
6550;BMP280;15142;48.888;9.134;2023-05-27T08:03:48;98740.44;;;18.17
6550;BMP280;15142;48.888;9.134;2023-05-27T08:06:55;98731.47;;;18.31
6550;BMP280;15142;48.888;9.134;2023-05-27T08:09:31;98726.41;;;18.43
6550;BMP280;15142;48.888;9.134;2023-05-27T08:12:21;98721.22;;;18.43
6550;BMP280;15142;48.888;9.134;2023-05-27T08:15:08;98721.66;;;18.53
6550;BMP280;15142;48.888;9.134;2023-05-27T08:17:45;98723.53;;;18.81
6550;BMP280;15142;48.888;9.134;2023-05-27T08:20:32;98719.53;;;18.92
6550;BMP280;15142;48.888;9.134;2023-05-27T08:23:20;98723.25;;;19.11
6550;BMP280;15142;48.888;9.134;2023-05-27T08:26:11;98717.22;;;19.28
6550;BMP280;15142;48.888;9.134;2023-05-27T08:28:59;98704.19;;;19.16
6550;BMP280;15142;48.888;9.134;2023-05-27T08:31:38;98717.22;;;18.99
6550;BMP280;15142;48.888;9.134;2023-05-27T08:34:12;98712.81;;;18.91
6550;BMP280;15142;48.888;9.134;2023-05-27T08:36:41;98709.88;;;19.01
6550;BMP280;15142;48.888;9.134;2023-05-27T08:39:10;98702.50;;;19.20
6550;BMP280;15142;48.888;9.134;2023-05-27T08:41:46;98712.47;;;19.29
6550;BMP280;15142;48.888;9.134;2023-05-27T08:44:16;98702.72;;;19.67
6550;BMP280;15142;48.888;9.134;2023-05-27T08:46:48;98700.63;;;19.81
6550;BMP280;15142;48.888;9.134;2023-05-27T08:49:20;98700.53;;;19.89
6550;BMP280;15142;48.888;9.134;2023-05-27T08:51:50;98697.84;;;19.85
6550;BMP280;15142;48.888;9.134;2023-05-27T08:54:20;98700.94;;;20.11
6550;BMP280;15142;48.888;9.134;2023-05-27T08:56:52;98702.06;;;20.22
6550;BMP280;15142;48.888;9.134;2023-05-27T08:59:24;98694.75;;;20.04
6550;BMP280;15142;48.888;9.134;2023-05-27T09:01:54;98697.06;;;20.05
6550;BMP280;15142;48.888;9.134;2023-05-27T09:04:26;98696.41;;;20.20
6550;BMP280;15142;48.888;9.134;2023-05-27T09:06:55;98694.41;;;20.37
6550;BMP280;15142;48.888;9.134;2023-05-27T09:09:24;98696.03;;;20.41
6550;BMP280;15142;48.888;9.134;2023-05-27T09:11:52;98681.91;;;20.51
6550;BMP280;15142;48.888;9.134;2023-05-27T09:14:27;98694.63;;;20.67
6550;BMP280;15142;48.888;9.134;2023-05-27T09:16:56;98683.72;;;20.50
6550;BMP280;15142;48.888;9.134;2023-05-27T09:19:30;98685.22;;;20.51
6550;BMP280;15142;48.888;9.134;2023-05-27T09:21:58;98673.63;;;20.60
6550;BMP280;15142;48.888;9.134;2023-05-27T09:24:27;98671.13;;;20.29
6550;BMP280;15142;48.888;9.134;2023-05-27T09:26:56;98665.44;;;20.59
6550;BMP280;15142;48.888;9.134;2023-05-27T09:29:24;98676.31;;;20.99
6550;BMP280;15142;48.888;9.134;2023-05-27T09:31:54;98670.22;;;21.19
6550;BMP280;15142;48.888;9.134;2023-05-27T09:34:23;98665.34;;;21.06
6550;BMP280;15142;48.888;9.134;2023-05-27T09:36:58;98668.72;;;21.06
6550;BMP280;15142;48.888;9.134;2023-05-27T09:39:26;98666.81;;;20.80
6550;BMP280;15142;48.888;9.134;2023-05-27T09:41:56;98657.41;;;20.87
6550;BMP280;15142;48.888;9.134;2023-05-27T09:44:27;98661.06;;;21.37
6550;BMP280;15142;48.888;9.134;2023-05-27T09:46:58;98660.13;;;21.56
6550;BMP280;15142;48.888;9.134;2023-05-27T09:49:29;98666.44;;;21.86
6550;BMP280;15142;48.888;9.134;2023-05-27T09:52:03;98666.53;;;21.74
6550;BMP280;15142;48.888;9.134;2023-05-27T09:54:33;98655.09;;;21.63
6550;BMP280;15142;48.888;9.134;2023-05-27T09:57:04;98650.38;;;21.53
6550;BMP280;15142;48.888;9.134;2023-05-27T09:59:34;98655.09;;;21.63
6550;BMP280;15142;48.888;9.134;2023-05-27T10:02:04;98645.53;;;21.67
6550;BMP280;15142;48.888;9.134;2023-05-27T10:04:35;98652.72;;;22.16
6550;BMP280;15142;48.888;9.134;2023-05-27T10:07:07;98639.97;;;21.95
6550;BMP280;15142;48.888;9.134;2023-05-27T10:09:36;98642.97;;;22.13
6550;BMP280;15142;48.888;9.134;2023-05-27T10:12:05;98644.41;;;22.10
6550;BMP280;15142;48.888;9.134;2023-05-27T10:14:34;98642.06;;;22.36
6550;BMP280;15142;48.888;9.134;2023-05-27T10:17:04;98636.00;;;22.32
6550;BMP280;15142;48.888;9.134;2023-05-27T10:19:33;98634.69;;;22.41
6550;BMP280;15142;48.888;9.134;2023-05-27T10:22:10;98624.06;;;22.31
6550;BMP280;15142;48.888;9.134;2023-05-27T10:24:39;98636.53;;;22.56
6550;BMP280;15142;48.888;9.134;2023-05-27T10:27:08;98633.34;;;22.81
6550;BMP280;15142;48.888;9.134;2023-05-27T10:29:37;98623.19;;;22.94
6550;BMP280;15142;48.888;9.134;2023-05-27T10:32:07;98623.25;;;23.35
6550;BMP280;15142;48.888;9.134;2023-05-27T10:34:36;98623.78;;;23.66
6550;BMP280;15142;48.888;9.134;2023-05-27T10:37:05;98619.78;;;23.50
6550;BMP280;15142;48.888;9.134;2023-05-27T10:39:39;98617.31;;;23.35
6550;BMP280;15142;48.888;9.134;2023-05-27T10:42:08;98611.28;;;23.12
6550;BMP280;15142;48.888;9.134;2023-05-27T10:44:37;98601.50;;;23.46
6550;BMP280;15142;48.888;9.134;2023-05-27T10:47:09;98604.97;;;23.54
6550;BMP280;15142;48.888;9.134;2023-05-27T10:49:39;98604.72;;;23.84
6550;BMP280;15142;48.888;9.134;2023-05-27T10:52:10;98600.16;;;24.03
6550;BMP280;15142;48.888;9.134;2023-05-27T10:54:43;98607.56;;;24.23
6550;BMP280;15142;48.888;9.134;2023-05-27T10:57:13;98605.78;;;24.56
6550;BMP280;15142;48.888;9.134;2023-05-27T10:59:48;98605.06;;;25.27
6550;BMP280;15142;48.888;9.134;2023-05-27T11:02:17;98598.59;;;25.15
6550;BMP280;15142;48.888;9.134;2023-05-27T11:04:46;98595.22;;;25.14
6550;BMP280;15142;48.888;9.134;2023-05-27T11:07:17;98591.06;;;25.52
6550;BMP280;15142;48.888;9.134;2023-05-27T11:09:50;98595.22;;;26.13
6550;BMP280;15142;48.888;9.134;2023-05-27T11:12:21;98586.22;;;26.00
6550;BMP280;15142;48.888;9.134;2023-05-27T11:14:52;98581.72;;;25.12
6550;BMP280;15142;48.888;9.134;2023-05-27T11:17:21;98595.88;;;25.50
6550;BMP280;15142;48.888;9.134;2023-05-27T11:19:51;98587.88;;;25.76
6550;BMP280;15142;48.888;9.134;2023-05-27T11:22:20;98587.06;;;25.65
6550;BMP280;15142;48.888;9.134;2023-05-27T11:25:02;98579.41;;;26.93
6550;BMP280;15142;48.888;9.134;2023-05-27T11:27:35;98574.56;;;26.82
6550;BMP280;15142;48.888;9.134;2023-05-27T11:30:08;98577.94;;;26.96
6550;BMP280;15142;48.888;9.134;2023-05-27T11:32:40;98574.59;;;27.57
6550;BMP280;15142;48.888;9.134;2023-05-27T11:35:13;98558.13;;;27.16
6550;BMP280;15142;48.888;9.134;2023-05-27T11:37:45;98567.81;;;27.01
6550;BMP280;15142;48.888;9.134;2023-05-27T11:40:16;98557.31;;;26.84
6550;BMP280;15142;48.888;9.134;2023-05-27T11:43:00;98560.72;;;26.88
6550;BMP280;15142;48.888;9.134;2023-05-27T11:46:02;98556.47;;;26.49
6550;BMP280;15142;48.888;9.134;2023-05-27T11:48:31;98555.75;;;26.63
6550;BMP280;15142;48.888;9.134;2023-05-27T11:51:00;98556.97;;;27.47
6550;BMP280;15142;48.888;9.134;2023-05-27T11:53:29;98544.59;;;26.83
6550;BMP280;15142;48.888;9.134;2023-05-27T11:56:02;98545.72;;;27.50
6550;BMP280;15142;48.888;9.134;2023-05-27T11:58:31;98537.50;;;27.00
6550;BMP280;15142;48.888;9.134;2023-05-27T12:01:00;98541.25;;;27.20
6550;BMP280;15142;48.888;9.134;2023-05-27T12:03:29;98541.63;;;27.08
6550;BMP280;15142;48.888;9.134;2023-05-27T12:05:58;98540.13;;;27.24
6550;BMP280;15142;48.888;9.134;2023-05-27T12:08:26;98532.56;;;27.61
6550;BMP280;15142;48.888;9.134;2023-05-27T12:10:55;98527.34;;;26.75
6550;BMP280;15142;48.888;9.134;2023-05-27T12:13:26;98524.00;;;27.26
6550;BMP280;15142;48.888;9.134;2023-05-27T12:15:55;98518.13;;;28.16
6550;BMP280;15142;48.888;9.134;2023-05-27T12:18:24;98506.09;;;28.83
6550;BMP280;15142;48.888;9.134;2023-05-27T12:20:52;98506.34;;;28.95
6550;BMP280;15142;48.888;9.134;2023-05-27T12:23:21;98494.81;;;28.29
6550;BMP280;15142;48.888;9.134;2023-05-27T12:25:50;98500.81;;;28.86
6550;BMP280;15142;48.888;9.134;2023-05-27T12:28:19;98495.38;;;28.53
6550;BMP280;15142;48.888;9.134;2023-05-27T12:30:51;98483.97;;;28.73
6550;BMP280;15142;48.888;9.134;2023-05-27T12:33:19;98490.75;;;28.21
6550;BMP280;15142;48.888;9.134;2023-05-27T12:35:48;98494.19;;;28.61
6550;BMP280;15142;48.888;9.134;2023-05-27T12:38:17;98491.94;;;29.46
6550;BMP280;15142;48.888;9.134;2023-05-27T12:40:46;98496.22;;;28.43
6550;BMP280;15142;48.888;9.134;2023-05-27T12:43:15;98490.97;;;28.43
6550;BMP280;15142;48.888;9.134;2023-05-27T12:45:43;98487.78;;;28.69
6550;BMP280;15142;48.888;9.134;2023-05-27T12:48:15;98497.84;;;29.86
6550;BMP280;15142;48.888;9.134;2023-05-27T12:50:44;98486.78;;;29.98
6550;BMP280;15142;48.888;9.134;2023-05-27T12:53:13;98485.41;;;29.86
6550;BMP280;15142;48.888;9.134;2023-05-27T12:55:42;98478.56;;;29.63
6550;BMP280;15142;48.888;9.134;2023-05-27T12:58:11;98482.38;;;29.26
6550;BMP280;15142;48.888;9.134;2023-05-27T13:00:40;98482.50;;;29.12
6550;BMP280;15142;48.888;9.134;2023-05-27T13:03:09;98480.59;;;28.76
6550;BMP280;15142;48.888;9.134;2023-05-27T13:05:41;98473.69;;;28.42
6550;BMP280;15142;48.888;9.134;2023-05-27T13:08:10;98469.69;;;28.78
6550;BMP280;15142;48.888;9.134;2023-05-27T13:10:39;98472.41;;;29.07
6550;BMP280;15142;48.888;9.134;2023-05-27T13:13:07;98460.53;;;28.89
6550;BMP280;15142;48.888;9.134;2023-05-27T13:15:36;98464.53;;;29.04
6550;BMP280;15142;48.888;9.134;2023-05-27T13:18:05;98452.44;;;28.70
6550;BMP280;15142;48.888;9.134;2023-05-27T13:20:35;98446.09;;;28.17
6550;BMP280;15142;48.888;9.134;2023-05-27T13:23:07;98444.94;;;28.72
6550;BMP280;15142;48.888;9.134;2023-05-27T13:25:36;98447.16;;;28.73
6550;BMP280;15142;48.888;9.134;2023-05-27T13:28:04;98448.16;;;29.26
6550;BMP280;15142;48.888;9.134;2023-05-27T13:30:33;98436.53;;;28.87
6550;BMP280;15142;48.888;9.134;2023-05-27T13:33:02;98442.59;;;28.34
6550;BMP280;15142;48.888;9.134;2023-05-27T13:35:31;98430.03;;;28.59
6550;BMP280;15142;48.888;9.134;2023-05-27T13:37:59;98434.59;;;28.94
6550;BMP280;15142;48.888;9.134;2023-05-27T13:40:31;98438.28;;;28.61
6550;BMP280;15142;48.888;9.134;2023-05-27T13:43:00;98428.88;;;28.63
6550;BMP280;15142;48.888;9.134;2023-05-27T13:45:29;98423.53;;;27.49
6550;BMP280;15142;48.888;9.134;2023-05-27T13:47:58;98413.16;;;26.64
6550;BMP280;15142;48.888;9.134;2023-05-27T13:50:26;98406.78;;;27.06
6550;BMP280;15142;48.888;9.134;2023-05-27T13:52:57;98419.41;;;27.48
6550;BMP280;15142;48.888;9.134;2023-05-27T13:55:27;98417.28;;;26.75
6550;BMP280;15142;48.888;9.134;2023-05-27T13:57:58;98408.31;;;26.59
6550;BMP280;15142;48.888;9.134;2023-05-27T14:00:28;98405.25;;;27.08
6550;BMP280;15142;48.888;9.134;2023-05-27T14:02:56;98395.53;;;26.30
6550;BMP280;15142;48.888;9.134;2023-05-27T14:05:26;98395.19;;;26.59
6550;BMP280;15142;48.888;9.134;2023-05-27T14:07:55;98386.22;;;26.77
6550;BMP280;15142;48.888;9.134;2023-05-27T14:10:24;98383.94;;;26.38
6550;BMP280;15142;48.888;9.134;2023-05-27T14:12:52;98377.56;;;26.28
6550;BMP280;15142;48.888;9.134;2023-05-27T14:15:24;98374.47;;;25.82
6550;BMP280;15142;48.888;9.134;2023-05-27T14:17:55;98372.22;;;25.77
6550;BMP280;15142;48.888;9.134;2023-05-27T14:20:25;98377.91;;;26.20
6550;BMP280;15142;48.888;9.134;2023-05-27T14:22:54;98361.06;;;25.97
6550;BMP280;15142;48.888;9.134;2023-05-27T14:25:24;98357.25;;;25.74
6550;BMP280;15142;48.888;9.134;2023-05-27T14:27:53;98348.31;;;25.78
6550;BMP280;15142;48.888;9.134;2023-05-27T14:30:25;98361.31;;;25.61
6550;BMP280;15142;48.888;9.134;2023-05-27T14:32:55;98355.34;;;25.64
6550;BMP280;15142;48.888;9.134;2023-05-27T14:35:27;98352.34;;;25.62
6550;BMP280;15142;48.888;9.134;2023-05-27T14:37:55;98351.84;;;25.33
6550;BMP280;15142;48.888;9.134;2023-05-27T14:40:24;98353.59;;;25.08
6550;BMP280;15142;48.888;9.134;2023-05-27T14:42:53;98361.09;;;25.13
6550;BMP280;15142;48.888;9.134;2023-05-27T14:45:25;98351.63;;;24.92
6550;BMP280;15142;48.888;9.134;2023-05-27T14:47:53;98347.91;;;25.03